KLBF/LBF METAR and TAF weather

Enter ICAO airport designator
Station Type Date Time Source
KLBF METAR 2020/01/18 15:53 UTC NOAA

KLBF 181553Z AUTO 31010KT 10SM CLR M04/M09 A3028 RMK AO2 SLP283 T10391094 $


Station Type Date Time Source
KLBF Decoded METAR 2020/01/18 15:53 UTC NOAA

NORTH PLATTE REGIONAL AIRPORT , NE, United States (KLBF) 41-07N 100-40W 847M
Jan 18, 2020 - 10:53 AM EST / 2020.01.18 1553 UTC
Wind: from the NW (310 degrees) at 12 MPH (10 KT):0
Visibility: 10 mile(s):0
Sky conditions: clear
Temperature: 25.0 F (-3.9 C)
Windchill: 14 F (-10 C):1
Dew Point: 15.1 F (-9.4 C)
Relative Humidity: 65%
Pressure (altimeter): 30.28 in. Hg (1025 hPa)
ob: KLBF 181553Z AUTO 31010KT 10SM CLR M04/M09 A3028 RMK AO2 SLP283 T10391094
cycle: 16

Station Type Date Time Source
KLBF TAF 2020/01/18 12:22 UTC NOAA

TAF KLBF 181120Z 1812/1912 33008KT P6SM SKC WS020/33045KT
FM181500 32014G21KT P6SM SKC
FM182000 30005KT P6SM SKC

Example: see airport list